Time;durP1;ratioP1;P1;durP2;ratioP2;P2;SDS_P1;SDS_P2;PMS_P1;PMS_P2;Temp;Humidity;BMP_temperature;BMP_pressure;BME280_temperature;BME280_humidity;BME280_pressure;Samples;Min_cycle;Max_cycle;Signal;HPM_P1;HPM_P2
2021/03/30 00:02:24;;;;;;;8.73;3.37;;;;;;;12.12;47.28;97657.38;4994751;28;20451;-86
2021/03/30 00:04:50;;;;;;;3.40;2.87;;;;;;;12.11;47.23;97655.91;4994595;28;20469;-85
2021/03/30 00:07:17;;;;;;;6.53;3.30;;;;;;;12.13;46.65;97656.09;5003384;28;20427;-85
2021/03/30 00:09:44;;;;;;;4.03;2.60;;;;;;;12.14;46.44;97652.16;5019159;28;20434;-84
2021/03/30 00:12:10;;;;;;;4.20;2.90;;;;;;;12.12;46.86;97641.84;5019207;28;20392;-85
2021/03/30 00:14:36;;;;;;;5.17;3.13;;;;;;;12.08;46.58;97644.13;5013726;28;20440;-85
2021/03/30 00:17:04;;;;;;;7.17;3.33;;;;;;;12.09;46.70;97648.28;5014080;28;20520;-85
2021/03/30 00:19:30;;;;;;;5.50;2.40;;;;;;;12.06;46.33;97645.91;5002240;28;20870;-85
2021/03/30 00:21:56;;;;;;;3.40;2.70;;;;;;;12.03;46.35;97639.53;5008243;28;20472;-85
2021/03/30 00:24:22;;;;;;;5.77;2.70;;;;;;;12.03;46.32;97642.25;5014185;28;20534;-85
2021/03/30 00:26:48;;;;;;;4.27;2.40;;;;;;;12.01;46.41;97633.91;5009448;28;20422;-85
2021/03/30 00:29:14;;;;;;;5.10;2.90;;;;;;;12.07;45.77;97631.13;5000224;28;20483;-86
2021/03/30 00:31:40;;;;;;;5.93;2.40;;;;;;;12.02;46.08;97637.38;5002599;28;20523;-86
2021/03/30 00:34:07;;;;;;;3.93;2.67;;;;;;;11.96;46.21;97631.31;4994929;28;20458;-86
2021/03/30 00:36:33;;;;;;;6.87;2.93;;;;;;;11.93;46.21;97626.94;4995461;28;20422;-86
2021/03/30 00:38:59;;;;;;;8.13;2.33;;;;;;;11.95;46.11;97630.59;4998364;28;20452;-86
2021/03/30 00:41:25;;;;;;;4.47;2.60;;;;;;;11.89;46.59;97634.63;4998530;28;20464;-86
2021/03/30 00:43:52;;;;;;;7.97;3.67;;;;;;;11.85;46.73;97629.53;4997893;28;20929;-85
2021/03/30 00:46:19;;;;;;;8.87;4.67;;;;;;;11.87;46.61;97629.75;4998452;28;20428;-85
2021/03/30 00:48:48;;;;;;;8.63;3.53;;;;;;;11.83;46.69;97623.91;4998646;28;20591;-86
2021/03/30 00:51:15;;;;;;;6.57;2.93;;;;;;;11.77;47.11;97615.91;4999729;28;20464;-85
2021/03/30 00:53:42;;;;;;;5.40;2.50;;;;;;;11.70;47.34;97616.50;4998986;28;20419;-86
2021/03/30 00:56:08;;;;;;;5.30;2.83;;;;;;;11.59;47.60;97613.94;4998877;28;20789;-86
2021/03/30 00:58:34;;;;;;;5.23;3.00;;;;;;;11.44;47.93;97626.47;4998516;28;20440;-86
2021/03/30 01:01:00;;;;;;;4.00;3.00;;;;;;;11.27;48.53;97618.63;4998728;28;20556;-86
2021/03/30 01:03:26;;;;;;;6.30;3.07;;;;;;;11.16;48.85;97619.50;5000042;28;20463;-86
2021/03/30 01:05:52;;;;;;;8.70;4.50;;;;;;;11.04;49.62;97620.91;5022020;28;20549;-86
2021/03/30 01:08:40;;;;;;;8.13;3.63;;;;;;;10.89;50.60;97617.91;5021545;28;20439;-86
2021/03/30 01:11:18;;;;;;;6.93;3.97;;;;;;;10.77;51.53;97622.00;4998344;28;20464;-85
2021/03/30 01:14:00;;;;;;;11.07;3.90;;;;;;;10.68;51.39;97622.34;4998397;28;20433;-85
2021/03/30 01:16:31;;;;;;;8.70;4.10;;;;;;;10.61;52.01;97625.63;4997728;28;20445;-85
2021/03/30 01:19:05;;;;;;;14.90;5.00;;;;;;;10.48;52.49;97625.53;4997502;28;20424;-85
2021/03/30 01:22:02;;;;;;;6.47;3.90;;;;;;;10.39;53.01;97625.88;4997359;28;20573;-86
2021/03/30 01:24:35;;;;;;;7.07;4.00;;;;;;;10.28;53.16;97626.72;4998227;28;20928;-86
2021/03/30 01:27:03;;;;;;;7.53;4.80;;;;;;;10.14;53.59;97619.75;4998500;28;20412;-84
2021/03/30 01:29:41;;;;;;;9.30;4.97;;;;;;;10.03;54.61;97614.44;4998002;28;20412;-85
2021/03/30 01:32:13;;;;;;;10.80;4.73;;;;;;;9.97;54.68;97621.84;4998012;28;20419;-85
2021/03/30 01:34:40;;;;;;;12.10;4.40;;;;;;;9.88;54.91;97614.09;4998293;28;20432;-85
2021/03/30 01:37:08;;;;;;;10.67;4.53;;;;;;;9.82;55.44;97621.50;4997711;28;20535;-86
2021/03/30 01:39:35;;;;;;;8.30;5.27;;;;;;;9.74;55.21;97620.59;4997816;28;20467;-85
2021/03/30 01:42:02;;;;;;;5.50;4.30;;;;;;;9.68;55.42;97610.56;4997521;28;20423;-85
2021/03/30 01:44:30;;;;;;;12.00;5.70;;;;;;;9.60;56.21;97619.72;4998202;28;20496;-85
2021/03/30 01:47:00;;;;;;;10.03;4.87;;;;;;;9.55;56.19;97618.53;4997690;28;20756;-85
2021/03/30 01:49:29;;;;;;;7.73;5.27;;;;;;;9.53;56.48;97612.91;4997773;28;20404;-86
2021/03/30 01:51:56;;;;;;;7.40;4.70;;;;;;;9.46;57.72;97615.44;4997821;28;20456;-85
2021/03/30 01:54:23;;;;;;;9.10;4.60;;;;;;;9.32;58.17;97611.84;4997841;28;20518;-85
2021/03/30 01:56:52;;;;;;;19.00;6.60;;;;;;;9.32;58.21;97619.94;4997391;28;20817;-85
2021/03/30 01:59:19;;;;;;;10.87;5.10;;;;;;;9.33;58.29;97620.66;4997359;28;20518;-85
2021/03/30 02:01:46;;;;;;;10.40;5.47;;;;;;;9.32;58.20;97609.16;4997384;28;20934;-86
2021/03/30 02:04:15;;;;;;;9.10;5.90;;;;;;;9.31;58.78;97615.75;4997113;28;20506;-85
2021/03/30 02:06:46;;;;;;;24.33;6.17;;;;;;;9.30;58.82;97614.31;4997153;28;20491;-86
2021/03/30 02:09:18;;;;;;;8.30;4.93;;;;;;;9.26;59.45;97605.78;4997476;28;20525;-86
2021/03/30 02:11:47;;;;;;;7.87;5.37;;;;;;;9.19;59.49;97609.00;4997782;28;20920;-85
2021/03/30 02:14:14;;;;;;;14.00;6.17;;;;;;;9.10;59.83;97612.72;4997514;28;20480;-86
2021/03/30 02:16:48;;;;;;;10.57;6.50;;;;;;;9.07;59.60;97613.72;4997389;28;20441;-86
2021/03/30 02:19:19;;;;;;;7.93;5.17;;;;;;;9.00;59.85;97605.44;4997816;28;20399;-86
2021/03/30 02:21:49;;;;;;;9.67;6.23;;;;;;;8.96;59.82;97604.97;4997969;28;20535;-86
2021/03/30 02:24:17;;;;;;;10.47;5.50;;;;;;;8.97;59.73;97603.75;4997448;28;20488;-84
2021/03/30 02:26:47;;;;;;;10.60;6.70;;;;;;;8.93;59.59;97603.25;4997223;28;20445;-86
2021/03/30 02:29:17;;;;;;;9.83;5.57;;;;;;;8.90;59.86;97601.56;4997049;28;20452;-85
2021/03/30 02:31:44;;;;;;;8.37;5.83;;;;;;;8.77;60.15;97602.13;4996989;28;20934;-85
2021/03/30 02:34:13;;;;;;;11.20;6.07;;;;;;;8.69;60.02;97601.19;4996724;28;20535;-85
2021/03/30 02:36:42;;;;;;;9.70;4.83;;;;;;;8.70;60.53;97599.97;4996784;28;20444;-85
2021/03/30 02:39:12;;;;;;;14.13;4.50;;;;;;;8.63;60.67;97602.44;4996965;28;20540;-85
2021/03/30 02:41:40;;;;;;;12.03;6.20;;;;;;;8.61;60.36;97595.59;4997073;28;20478;-85
2021/03/30 02:44:09;;;;;;;10.57;5.80;;;;;;;8.57;60.71;97599.78;4996996;28;20445;-85
2021/03/30 02:46:37;;;;;;;9.90;5.47;;;;;;;8.52;60.81;97595.16;4996853;28;20494;-86
2021/03/30 02:49:03;;;;;;;9.93;6.90;;;;;;;8.48;60.97;97594.69;4996517;28;20532;-86
2021/03/30 02:51:32;;;;;;;15.20;8.20;;;;;;;8.48;60.59;97592.75;4996432;28;20457;-86
2021/03/30 02:54:01;;;;;;;16.73;9.43;;;;;;;8.45;60.42;97601.06;4996601;28;20455;-86
2021/03/30 02:56:27;;;;;;;21.97;10.13;;;;;;;8.45;60.22;97606.44;4996601;28;20756;-85
2021/03/30 02:58:53;;;;;;;20.37;10.10;;;;;;;8.41;60.61;97603.25;4995668;28;20935;-86
2021/03/30 03:01:21;;;;;;;18.27;9.23;;;;;;;8.38;60.75;97598.88;4996338;28;20424;-86
2021/03/30 03:03:50;;;;;;;23.20;10.73;;;;;;;8.36;60.47;97602.06;4996762;28;20453;-86
2021/03/30 03:06:16;;;;;;;17.60;8.30;;;;;;;8.31;60.71;97597.44;4996161;28;20489;-85
2021/03/30 03:08:43;;;;;;;17.40;7.70;;;;;;;8.28;61.03;97605.75;4996916;28;20437;-85
2021/03/30 03:11:12;;;;;;;13.70;8.90;;;;;;;8.25;61.32;97607.44;4995907;28;20471;-85
2021/03/30 03:13:40;;;;;;;16.13;7.20;;;;;;;8.24;61.99;97605.25;4996026;28;20552;-86
2021/03/30 03:16:07;;;;;;;17.20;7.43;;;;;;;8.24;62.19;97607.94;4996527;28;20528;-85
2021/03/30 03:18:34;;;;;;;10.83;6.20;;;;;;;8.24;61.51;97605.25;4996600;28;20648;-85
2021/03/30 03:21:02;;;;;;;11.63;6.70;;;;;;;8.14;61.37;97604.81;4996286;28;20963;-85
2021/03/30 03:23:30;;;;;;;10.47;6.20;;;;;;;8.12;61.49;97603.81;4996711;28;20500;-85
2021/03/30 03:25:56;;;;;;;10.87;6.40;;;;;;;8.12;61.68;97607.22;4996225;28;20550;-85
2021/03/30 03:28:24;;;;;;;12.77;6.13;;;;;;;8.03;62.31;97605.53;4995933;28;20536;-85
2021/03/30 03:30:50;;;;;;;11.07;5.63;;;;;;;7.99;62.24;97610.44;4995869;28;20556;-86
2021/03/30 03:33:16;;;;;;;9.00;5.63;;;;;;;7.98;62.72;97611.66;4996304;28;20443;-85
2021/03/30 03:35:59;;;;;;;9.13;6.40;;;;;;;7.92;62.72;97607.53;4997062;28;20551;-85
2021/03/30 03:38:26;;;;;;;11.37;6.50;;;;;;;7.88;63.67;97612.41;4995772;28;20997;-85
2021/03/30 03:40:52;;;;;;;15.37;6.73;;;;;;;7.83;63.57;97610.47;4995445;28;20531;-85
2021/03/30 03:43:18;;;;;;;13.30;6.50;;;;;;;7.79;63.85;97607.28;4996160;28;20828;-86
2021/03/30 03:45:45;;;;;;;8.07;5.20;;;;;;;7.81;64.44;97602.88;4996298;28;20562;-86
2021/03/30 03:48:11;;;;;;;12.60;5.80;;;;;;;7.85;63.40;97603.38;4996250;28;20438;-86
2021/03/30 03:50:38;;;;;;;9.27;6.47;;;;;;;7.80;63.61;97603.41;4995614;28;20493;-85
2021/03/30 03:53:06;;;;;;;9.63;5.37;;;;;;;7.76;64.00;97595.56;4995934;28;20528;-86
2021/03/30 03:55:33;;;;;;;12.27;6.70;;;;;;;7.74;63.74;97605.31;4996253;28;20514;-85
2021/03/30 03:58:02;;;;;;;9.03;5.40;;;;;;;7.71;64.17;97606.31;4998423;28;20433;-85
2021/03/30 04:00:29;;;;;;;8.87;5.30;;;;;;;7.69;64.17;97600.69;4996265;28;20428;-84
2021/03/30 04:03:02;;;;;;;15.67;5.77;;;;;;;7.69;63.18;97608.75;4996040;28;20440;-86
2021/03/30 04:05:35;;;;;;;10.50;5.30;;;;;;;7.72;63.35;97605.09;4996075;28;20462;-85
2021/03/30 04:08:10;;;;;;;19.67;5.53;;;;;;;7.79;62.54;97616.09;4996199;28;20425;-85
2021/03/30 04:10:37;;;;;;;11.93;5.50;;;;;;;7.83;62.01;97613.88;4995244;28;20480;-85
2021/03/30 04:13:04;;;;;;;10.03;4.80;;;;;;;7.86;61.25;97606.81;4995691;28;20533;-86
2021/03/30 04:15:31;;;;;;;11.63;4.80;;;;;;;7.90;61.33;97610.69;4995652;28;20412;-86
2021/03/30 04:17:58;;;;;;;8.57;5.07;;;;;;;7.94;60.68;97610.44;4995662;28;20440;-84
2021/03/30 04:20:26;;;;;;;8.40;3.90;;;;;;;7.91;60.47;97606.78;4995190;28;20488;-86
2021/03/30 04:22:54;;;;;;;9.67;4.27;;;;;;;7.94;59.99;97611.19;4995340;28;20421;-85
2021/03/30 04:25:21;;;;;;;5.90;4.27;;;;;;;7.91;59.78;97606.06;4995060;28;20537;-85
2021/03/30 04:27:47;;;;;;;8.47;4.80;;;;;;;7.93;59.53;97609.72;4995457;28;20494;-85
2021/03/30 04:30:14;;;;;;;5.27;4.20;;;;;;;8.01;59.00;97618.00;4995463;28;20451;-87
2021/03/30 04:32:40;;;;;;;6.57;4.13;;;;;;;8.02;58.88;97606.03;4996028;28;20435;-86
2021/03/30 04:35:09;;;;;;;14.37;4.53;;;;;;;8.00;58.63;97621.91;4995849;28;20433;-84
2021/03/30 04:37:35;;;;;;;12.00;4.40;;;;;;;7.96;58.43;97610.69;4996006;28;20499;-85
2021/03/30 04:40:01;;;;;;;7.97;4.30;;;;;;;7.95;58.86;97614.59;4996417;28;20556;-85
2021/03/30 04:42:27;;;;;;;8.57;4.83;;;;;;;7.91;59.46;97614.13;4995851;28;20408;-85
2021/03/30 04:44:53;;;;;;;13.13;5.00;;;;;;;7.93;59.50;97611.66;4996199;28;20583;-85
2021/03/30 04:47:21;;;;;;;10.63;4.80;;;;;;;7.86;60.67;97617.56;4995705;28;20491;-86
2021/03/30 04:49:47;;;;;;;8.57;4.40;;;;;;;7.82;61.42;97611.69;4996165;28;20552;-86
2021/03/30 04:52:14;;;;;;;11.10;5.33;;;;;;;7.75;62.02;97620.22;4995751;28;20437;-86
2021/03/30 04:54:40;;;;;;;9.77;4.80;;;;;;;7.66;61.90;97620.47;4995852;28;20422;-85
2021/03/30 04:57:07;;;;;;;10.73;4.83;;;;;;;7.63;62.80;97624.16;4996164;28;20437;-85
2021/03/30 04:59:34;;;;;;;11.00;5.10;;;;;;;7.62;63.04;97622.69;4995828;28;20493;-85
2021/03/30 05:02:00;;;;;;;12.60;5.67;;;;;;;7.53;63.76;97624.41;4995282;28;20977;-85
2021/03/30 05:04:26;;;;;;;10.87;4.73;;;;;;;7.50;64.12;97628.06;4995388;28;20472;-85
2021/03/30 05:06:52;;;;;;;11.17;6.10;;;;;;;7.44;64.80;97626.59;4994652;28;20934;-85
2021/03/30 05:09:19;;;;;;;10.13;4.97;;;;;;;7.43;64.76;97627.81;4994899;28;20520;-85
2021/03/30 05:11:45;;;;;;;13.93;5.97;;;;;;;7.51;64.73;97629.53;4995322;28;20452;-86
2021/03/30 05:14:11;;;;;;;7.57;5.27;;;;;;;7.61;64.21;97632.72;4995588;28;20433;-85
2021/03/30 05:16:37;;;;;;;7.67;5.23;;;;;;;7.75;64.15;97630.97;4995367;28;20490;-85
2021/03/30 05:19:03;;;;;;;10.53;6.27;;;;;;;7.92;63.62;97626.34;4995119;28;20421;-85
2021/03/30 05:21:29;;;;;;;11.30;5.77;;;;;;;8.15;63.22;97630.44;4995066;28;20844;-85
2021/03/30 05:23:55;;;;;;;16.07;5.63;;;;;;;8.38;62.38;97634.56;4998252;28;20932;-85
2021/03/30 05:26:22;;;;;;;18.13;5.80;;;;;;;8.67;61.44;97633.25;4998562;28;20567;-86
2021/03/30 05:28:49;;;;;;;10.03;5.10;;;;;;;8.83;61.31;97637.09;4998806;28;20871;-85
2021/03/30 05:31:15;;;;;;;8.40;5.00;;;;;;;8.98;61.16;97637.50;4999332;28;21008;-85
2021/03/30 05:33:41;;;;;;;23.97;6.10;;;;;;;9.27;60.00;97644.91;4999476;28;20425;-85
2021/03/30 05:36:07;;;;;;;7.93;5.57;;;;;;;9.50;59.00;97640.13;4998614;28;20811;-86
2021/03/30 05:38:33;;;;;;;9.13;5.23;;;;;;;9.69;58.63;97644.38;4998775;28;20820;-87
2021/03/30 05:41:02;;;;;;;11.80;6.03;;;;;;;9.89;57.29;97639.81;4998993;28;20492;-86
2021/03/30 05:43:29;;;;;;;12.00;5.43;;;;;;;10.14;56.54;97639.38;4998954;28;20485;-86
2021/03/30 05:45:59;;;;;;;8.40;5.40;;;;;;;10.37;56.16;97639.84;4998783;28;20502;-85
2021/03/30 05:48:25;;;;;;;12.43;5.90;;;;;;;10.72;55.22;97641.66;4999946;28;20531;-85
2021/03/30 05:50:51;;;;;;;10.97;5.70;;;;;;;11.06;54.00;97647.38;5000039;28;20510;-86
2021/03/30 05:53:18;;;;;;;12.53;6.20;;;;;;;11.26;53.40;97642.19;4999771;28;20498;-90
2021/03/30 05:55:48;;;;;;;7.20;5.50;;;;;;;11.48;52.71;97645.81;5009285;28;20526;-92
2021/03/30 05:58:17;;;;;;;13.13;5.90;;;;;;;11.71;52.54;97655.09;5004163;28;20462;-92
2021/03/30 06:00:47;;;;;;;11.47;6.10;;;;;;;12.03;51.44;97657.75;5007518;28;20440;-93
2021/03/30 06:03:14;;;;;;;10.60;6.10;;;;;;;12.29;51.17;97661.22;5008342;28;20430;-92
2021/03/30 06:05:41;;;;;;;18.90;5.90;;;;;;;12.46;50.49;97654.78;5017308;28;20478;-91
2021/03/30 06:08:08;;;;;;;10.77;6.13;;;;;;;12.94;49.53;97667.16;5020188;28;20415;-90
2021/03/30 06:10:36;;;;;;;11.27;5.27;;;;;;;13.25;48.33;97666.28;5020435;28;20465;-92
2021/03/30 06:13:05;;;;;;;8.77;5.03;;;;;;;13.35;47.58;97669.97;5020502;28;20426;-91
2021/03/30 06:15:32;;;;;;;8.90;5.40;;;;;;;13.95;46.08;97675.97;5014618;28;20412;-92
2021/03/30 06:18:01;;;;;;;11.17;6.10;;;;;;;13.99;45.65;97678.38;5011240;28;20451;-92
2021/03/30 06:20:31;;;;;;;12.60;5.20;;;;;;;14.29;44.81;97681.31;5020334;28;20480;-90
2021/03/30 06:22:59;;;;;;;8.00;4.70;;;;;;;14.37;44.48;97675.97;5020114;28;20417;-93
2021/03/30 06:25:41;;;;;;;6.70;4.30;;;;;;;14.77;43.07;97677.09;5017361;28;20501;-91
2021/03/30 06:28:16;;;;;;;7.57;5.13;;;;;;;15.15;41.99;97679.25;5007406;28;20456;-91
2021/03/30 06:30:57;;;;;;;10.10;7.63;;;;;;;15.31;41.32;97686.19;5009974;28;20447;-91
2021/03/30 06:33:25;;;;;;;6.83;5.20;;;;;;;15.63;40.68;97697.34;5001521;28;20435;-88
2021/03/30 06:35:52;;;;;;;8.30;4.63;;;;;;;15.75;40.16;97689.59;5003606;28;20445;-90
2021/03/30 06:38:19;;;;;;;12.43;5.20;;;;;;;15.75;40.28;97676.72;5004471;28;20449;-90
2021/03/30 06:40:46;;;;;;;8.53;4.43;;;;;;;15.73;40.16;97687.41;5004242;28;21011;-91
2021/03/30 06:46:22;;;;;;;8.03;5.00;;;;;;;16.03;39.78;97684.72;4941298;29;20515;-89
2021/03/30 06:48:49;;;;;;;9.70;5.30;;;;;;;16.03;39.71;97681.28;4940626;29;20430;-90
2021/03/30 06:51:17;;;;;;;11.27;4.83;;;;;;;16.26;39.39;97694.88;4968398;28;20489;-89
2021/03/30 06:53:44;;;;;;;7.17;5.27;;;;;;;16.60;38.59;97685.03;4999195;28;20448;-86
2021/03/30 06:56:10;;;;;;;14.60;5.63;;;;;;;16.99;38.21;97689.13;4999980;28;20480;-92
2021/03/30 06:58:55;;;;;;;11.10;4.37;;;;;;;17.48;36.51;97694.00;5004850;28;20477;-92
2021/03/30 07:01:24;;;;;;;7.23;4.80;;;;;;;17.31;36.28;97691.19;5005111;28;20457;-89
2021/03/30 07:03:53;;;;;;;7.83;4.50;;;;;;;17.54;35.39;97688.34;5002747;28;20472;-90
2021/03/30 07:06:20;;;;;;;6.57;4.90;;;;;;;17.41;34.70;97688.59;5002672;28;20488;-89
2021/03/30 07:08:48;;;;;;;5.33;4.33;;;;;;;17.58;35.47;97683.97;5001880;28;20454;-91
2021/03/30 07:11:17;;;;;;;7.50;5.03;;;;;;;17.71;35.12;97682.97;5003354;28;20458;-89
2021/03/30 07:13:47;;;;;;;12.47;5.03;;;;;;;17.56;35.61;97683.06;5004891;28;20419;-90
2021/03/30 07:16:21;;;;;;;8.53;4.87;;;;;;;17.62;35.67;97678.13;5004899;28;20779;-90
2021/03/30 07:18:49;;;;;;;10.50;5.60;;;;;;;17.75;35.32;97688.78;5004494;28;20434;-90
2021/03/30 07:21:20;;;;;;;10.03;5.70;;;;;;;18.05;34.96;97694.00;5006356;28;20516;-91
2021/03/30 07:23:54;;;;;;;6.37;4.67;;;;;;;18.35;34.80;97695.06;5004693;28;20930;-91
2021/03/30 07:26:21;;;;;;;7.57;4.80;;;;;;;18.34;34.62;97690.88;5005159;28;20501;-90
2021/03/30 07:28:50;;;;;;;10.63;5.20;;;;;;;18.53;34.44;97693.81;5010590;28;20437;-89
2021/03/30 07:31:23;;;;;;;10.97;5.50;;;;;;;18.51;34.73;97694.38;5017552;28;20484;-92
2021/03/30 07:33:56;;;;;;;8.33;5.10;;;;;;;18.72;34.61;97696.72;5012341;28;20449;-89
2021/03/30 07:36:26;;;;;;;12.70;5.87;;;;;;;18.55;34.84;97688.50;5006935;28;20465;-88
2021/03/30 07:38:58;;;;;;;14.23;5.30;;;;;;;18.43;35.13;97688.22;5005498;28;20425;-90
2021/03/30 07:41:25;;;;;;;9.57;5.13;;;;;;;18.45;35.29;97696.59;5000461;28;20464;-91
2021/03/30 07:43:52;;;;;;;7.87;5.17;;;;;;;18.54;35.02;97693.25;5002328;28;20445;-90
2021/03/30 07:46:23;;;;;;;10.90;5.20;;;;;;;18.73;34.63;97697.47;5004329;28;20488;-91
2021/03/30 07:48:49;;;;;;;8.80;5.33;;;;;;;19.07;34.21;97700.91;5003372;28;20474;-92
2021/03/30 07:51:22;;;;;;;10.00;4.90;;;;;;;19.07;33.80;97700.91;5004103;28;20472;-92
2021/03/30 07:53:52;;;;;;;7.80;5.40;;;;;;;19.41;33.40;97699.41;4998712;28;20424;-88
2021/03/30 07:56:53;;;;;;;8.37;5.20;;;;;;;19.46;33.64;97701.16;4999585;28;20481;-89
2021/03/30 07:59:48;;;;;;;11.97;5.93;;;;;;;19.71;33.36;97707.94;5003177;28;20460;-93
2021/03/30 08:02:23;;;;;;;11.23;5.50;;;;;;;19.64;33.25;97706.03;4996451;28;20456;-90
2021/03/30 08:05:05;;;;;;;10.60;5.17;;;;;;;19.65;33.79;97709.50;5003758;28;20483;-91
2021/03/30 08:16:15;;;;;;;8.97;4.40;;;;;;;20.35;32.40;97710.66;5043171;28;20475;-91
2021/03/30 08:18:43;;;;;;;6.93;4.87;;;;;;;20.49;32.28;97706.19;5053253;28;20439;-94
2021/03/30 08:21:11;;;;;;;8.60;5.50;;;;;;;20.46;32.59;97707.34;5056108;28;20443;-92
2021/03/30 08:24:07;;;;;;;12.10;5.37;;;;;;;20.08;32.91;97705.22;5056848;28;20478;-94
2021/03/30 08:26:36;;;;;;;9.23;5.13;;;;;;;19.95;32.90;97703.59;5056661;28;20463;-94
2021/03/30 08:29:05;;;;;;;11.10;4.90;;;;;;;19.45;33.73;97708.66;5051932;28;20424;-90
2021/03/30 08:31:35;;;;;;;6.63;4.00;;;;;;;19.38;33.80;97706.72;5044848;28;20462;-89
2021/03/30 08:34:04;;;;;;;7.30;4.90;;;;;;;18.95;34.54;97713.59;5044655;28;20435;-90
2021/03/30 08:36:33;;;;;;;8.80;5.10;;;;;;;18.91;35.34;97707.84;5043241;28;20542;-88
2021/03/30 08:39:04;;;;;;;9.20;4.63;;;;;;;18.74;34.82;97707.81;5043497;28;20478;-88
2021/03/30 08:45:05;;;;;;;10.57;5.50;;;;;;;18.46;36.32;97703.50;5712945;22;20501;-90
2021/03/30 08:47:36;;;;;;;11.93;4.70;;;;;;;18.39;36.52;97704.28;5064325;28;20490;-93
2021/03/30 08:50:35;;;;;;;7.60;5.47;;;;;;;18.45;36.85;97707.50;5066923;28;20466;-89
2021/03/30 08:53:05;;;;;;;13.30;5.20;;;;;;;18.34;37.21;97710.72;5063688;28;20453;-87
2021/03/30 08:55:35;;;;;;;8.23;5.30;;;;;;;18.42;37.30;97710.66;5063445;28;20450;-92
2021/03/30 08:58:02;;;;;;;7.50;5.20;;;;;;;18.45;37.45;97712.97;5062762;28;20469;-89
2021/03/30 09:00:30;;;;;;;7.93;5.43;;;;;;;18.34;37.55;97710.00;5068015;28;20454;-89
2021/03/30 09:03:02;;;;;;;10.77;4.53;;;;;;;18.34;37.39;97710.72;5078954;28;20435;-88
2021/03/30 09:05:28;;;;;;;9.90;5.47;;;;;;;18.58;37.04;97711.97;5079704;28;20488;-88
2021/03/30 09:07:54;;;;;;;7.60;5.40;;;;;;;18.64;35.88;97707.00;5080057;28;20529;-91
2021/03/30 09:10:21;;;;;;;10.13;5.27;;;;;;;18.54;36.83;97722.63;5069006;28;20974;-92
2021/03/30 09:12:47;;;;;;;9.23;5.50;;;;;;;18.50;36.81;97711.34;5069125;28;20865;-91
2021/03/30 09:15:14;;;;;;;14.97;5.47;;;;;;;18.40;37.57;97711.22;5074234;28;20438;-91
2021/03/30 09:17:54;;;;;;;11.50;6.43;;;;;;;18.32;37.97;97709.84;5078972;28;20449;-91
2021/03/30 09:20:21;;;;;;;10.70;5.20;;;;;;;18.32;37.72;97707.09;5077422;28;20484;-91
2021/03/30 09:22:47;;;;;;;9.00;5.70;;;;;;;18.57;37.01;97700.34;5067170;28;20973;-88
2021/03/30 09:25:25;;;;;;;11.07;5.60;;;;;;;18.70;36.04;97702.75;5061054;28;20511;-88
2021/03/30 09:27:51;;;;;;;14.33;5.53;;;;;;;18.86;35.37;97706.06;5060684;28;20430;-88
2021/03/30 09:30:19;;;;;;;11.80;5.47;;;;;;;18.96;35.41;97701.38;5061636;28;20531;-89
2021/03/30 09:32:48;;;;;;;8.57;5.50;;;;;;;19.15;34.74;97696.06;5062530;28;20493;-89
2021/03/30 09:35:16;;;;;;;10.20;5.90;;;;;;;19.26;34.65;97703.75;5064047;28;20423;-90
2021/03/30 09:37:45;;;;;;;9.73;6.53;;;;;;;19.10;34.43;97699.78;5066177;28;20445;-90
2021/03/30 09:40:13;;;;;;;13.33;6.07;;;;;;;19.18;34.14;97694.19;5072621;28;20463;-92
2021/03/30 09:42:40;;;;;;;10.80;7.10;;;;;;;19.08;35.74;97698.88;5064920;28;20431;-90
2021/03/30 09:45:09;;;;;;;11.07;6.43;;;;;;;19.03;36.31;97697.84;5064957;28;20572;-93
2021/03/30 09:47:35;;;;;;;23.77;6.93;;;;;;;18.94;36.00;97701.22;5064782;28;20473;-91
2021/03/30 09:50:02;;;;;;;11.60;6.00;;;;;;;18.79;35.89;97690.47;5064838;28;20515;-90
2021/03/30 09:52:31;;;;;;;12.47;6.07;;;;;;;18.96;35.57;97692.44;5064497;28;20522;-88
2021/03/30 09:54:58;;;;;;;9.40;5.80;;;;;;;19.13;34.72;97689.72;5061617;28;20450;-90
2021/03/30 09:57:27;;;;;;;9.83;5.50;;;;;;;19.12;33.64;97688.97;5061832;28;20443;-90
2021/03/30 09:59:54;;;;;;;10.53;7.27;;;;;;;19.20;34.08;97686.88;5062802;28;21024;-87
2021/03/30 10:02:23;;;;;;;11.60;6.80;;;;;;;19.23;34.55;97685.72;5060910;28;20442;-88
2021/03/30 10:04:53;;;;;;;9.90;6.40;;;;;;;19.34;34.53;97689.25;5060616;28;20413;-87
2021/03/30 10:07:21;;;;;;;12.37;5.83;;;;;;;19.31;33.75;97680.16;5061484;28;20441;-87
2021/03/30 10:09:59;;;;;;;14.13;6.30;;;;;;;19.44;33.53;97679.84;5058920;28;20474;-88
2021/03/30 10:12:30;;;;;;;9.37;5.13;;;;;;;19.56;34.25;97685.53;5060780;28;20569;-88
2021/03/30 10:14:57;;;;;;;18.50;6.70;;;;;;;19.60;33.19;97685.84;5060244;28;20451;-87
2021/03/30 10:17:25;;;;;;;7.30;6.00;;;;;;;19.76;32.85;97676.13;5061165;28;20442;-87
2021/03/30 10:19:52;;;;;;;11.00;6.43;;;;;;;19.91;32.46;97675.88;5062040;28;20466;-88
2021/03/30 10:22:25;;;;;;;15.27;5.43;;;;;;;20.11;31.88;97673.94;5058923;28;20427;-87
2021/03/30 10:25:09;;;;;;;8.50;6.00;;;;;;;20.26;31.94;97671.69;5059618;28;20439;-88
2021/03/30 10:27:36;;;;;;;7.60;5.63;;;;;;;20.21;30.17;97675.38;5059464;28;20529;-88
2021/03/30 10:30:04;;;;;;;8.77;5.50;;;;;;;20.20;29.93;97667.75;5059011;28;20468;-88
2021/03/30 10:32:43;;;;;;;7.17;5.13;;;;;;;20.38;30.13;97671.84;5059375;28;20451;-87
2021/03/30 10:35:10;;;;;;;9.80;5.70;;;;;;;20.52;30.63;97666.66;5059071;28;20497;-87
2021/03/30 10:37:38;;;;;;;10.73;6.00;;;;;;;20.37;30.67;97670.41;5061002;28;20456;-88
2021/03/30 10:40:05;;;;;;;14.23;6.80;;;;;;;20.17;31.40;97666.16;5059768;28;20470;-88
2021/03/30 10:42:37;;;;;;;12.23;6.40;;;;;;;20.18;32.39;97660.09;5061726;28;20433;-88
2021/03/30 10:45:06;;;;;;;10.20;6.80;;;;;;;20.19;31.84;97656.06;5058345;28;20521;-87
2021/03/30 10:47:34;;;;;;;8.70;6.03;;;;;;;20.27;31.16;97655.94;5065561;28;20442;-91
2021/03/30 10:50:01;;;;;;;11.10;5.00;;;;;;;20.47;30.94;97651.22;5062943;28;20525;-93
2021/03/30 10:52:31;;;;;;;13.60;6.53;;;;;;;20.59;31.04;97646.59;5063306;28;20492;-88
2021/03/30 10:54:58;;;;;;;9.20;5.40;;;;;;;20.84;30.59;97642.28;5074638;28;21042;-94
2021/03/30 10:57:26;;;;;;;12.70;6.63;;;;;;;20.93;31.11;97643.56;5068648;28;20445;-93
2021/03/30 10:59:55;;;;;;;12.00;6.87;;;;;;;20.96;31.03;97644.41;5071334;28;20456;-91
2021/03/30 11:02:22;;;;;;;9.47;5.90;;;;;;;20.88;30.74;97643.84;5075719;28;20454;-92
2021/03/30 11:04:48;;;;;;;10.60;6.30;;;;;;;20.92;30.67;97633.91;5062913;28;20530;-92
2021/03/30 11:07:14;;;;;;;15.20;5.23;;;;;;;21.07;30.67;97641.09;5062686;28;21028;-93
2021/03/30 11:09:42;;;;;;;8.03;5.90;;;;;;;21.10;30.16;97634.47;5064864;28;20557;-92
2021/03/30 11:12:09;;;;;;;7.80;5.00;;;;;;;21.13;29.91;97636.06;5064674;28;20502;-91
2021/03/30 11:14:36;;;;;;;12.73;6.73;;;;;;;21.07;29.22;97641.81;5065769;28;20453;-91
2021/03/30 11:17:03;;;;;;;9.67;5.20;;;;;;;21.04;29.39;97629.25;5066580;28;20473;-92
2021/03/30 11:19:30;;;;;;;8.13;5.63;;;;;;;21.02;28.57;97625.66;5067271;28;20473;-92
2021/03/30 11:21:56;;;;;;;6.87;4.43;;;;;;;21.21;28.24;97618.09;5074641;28;20415;-94
2021/03/30 11:24:24;;;;;;;12.03;5.20;;;;;;;21.17;28.06;97623.34;5071287;28;20470;-92
2021/03/30 11:26:52;;;;;;;13.70;4.73;;;;;;;21.13;27.87;97625.06;5059021;28;20528;-90
2021/03/30 11:29:24;;;;;;;6.50;5.13;;;;;;;21.38;27.75;97622.69;5057212;28;20511;-92
2021/03/30 11:32:10;;;;;;;7.03;4.67;;;;;;;21.45;27.76;97613.56;5072341;28;20407;-93
2021/03/30 11:34:40;;;;;;;5.67;4.83;;;;;;;21.63;27.21;97617.53;5064397;28;20426;-88
2021/03/30 11:37:16;;;;;;;5.40;4.57;;;;;;;21.85;26.71;97613.53;5058851;28;20443;-89
2021/03/30 11:39:43;;;;;;;6.83;5.43;;;;;;;22.01;26.49;97611.16;5059691;28;20879;-91
2021/03/30 11:42:09;;;;;;;6.63;4.10;;;;;;;21.89;26.37;97607.63;5059765;28;20438;-91
2021/03/30 11:44:35;;;;;;;9.80;5.20;;;;;;;21.91;26.54;97613.25;5067568;28;20477;-96
2021/03/30 11:47:02;;;;;;;7.87;5.10;;;;;;;21.95;26.35;97613.50;5071466;28;20490;-95
2021/03/30 11:49:29;;;;;;;11.47;4.90;;;;;;;22.01;26.38;97605.66;5068780;28;20894;-92
2021/03/30 11:51:56;;;;;;;7.73;4.97;;;;;;;22.05;25.79;97599.72;5060379;28;20498;-90
2021/03/30 11:54:23;;;;;;;8.03;4.90;;;;;;;22.09;26.17;97600.69;5061021;28;20481;-91
2021/03/30 11:56:49;;;;;;;13.73;6.00;;;;;;;22.13;26.11;97606.44;5061422;28;20463;-94